Time;durP1;ratioP1;P1;durP2;ratioP2;P2;SDS_P1;SDS_P2;PMS_P1;PMS_P2;Temp;Humidity;BMP_temperature;BMP_pressure;BME280_temperature;BME280_humidity;BME280_pressure;Samples;Min_cycle;Max_cycle;Signal;HPM_P1;HPM_P2
2022/12/07 00:00:33;;;;;;;184.18;98.35;;;;;;;14.68;72.68;99037.16;4965879;28;20138;-65
2022/12/07 00:03:22;;;;;;;180.48;96.70;;;;;;;14.71;72.99;99049.38;4965307;28;20082;-65
2022/12/07 00:06:13;;;;;;;189.43;98.05;;;;;;;14.65;73.17;99043.03;4966035;28;20074;-65
2022/12/07 00:09:10;;;;;;;195.18;100.10;;;;;;;14.56;73.55;99049.81;4965055;28;20958;-64
2022/12/07 00:11:50;;;;;;;186.40;96.65;;;;;;;14.55;73.64;99048.16;4965432;28;20186;-65
2022/12/07 00:14:45;;;;;;;192.82;100.60;;;;;;;14.62;73.13;99046.22;4968436;28;20047;-66
2022/12/07 00:17:20;;;;;;;188.77;96.05;;;;;;;14.62;72.99;99058.91;4968081;28;20054;-66
2022/12/07 00:20:17;;;;;;;194.18;98.82;;;;;;;14.56;73.95;99060.63;4966739;28;20363;-66
2022/12/07 00:22:52;;;;;;;190.15;97.72;;;;;;;14.52;73.86;99064.84;4970570;28;20058;-65
2022/12/07 00:25:41;;;;;;;179.32;95.35;;;;;;;14.54;73.60;99064.59;4971513;28;20066;-66
2022/12/07 00:28:23;;;;;;;188.68;97.65;;;;;;;14.47;73.93;99079.03;4962039;28;20058;-65
2022/12/07 00:31:13;;;;;;;182.25;95.75;;;;;;;14.39;74.05;99082.06;4960641;28;20523;-66
2022/12/07 00:33:57;;;;;;;180.38;95.28;;;;;;;14.42;74.14;99081.56;4950547;28;20050;-65
2022/12/07 00:36:53;;;;;;;186.07;97.75;;;;;;;14.45;73.50;99083.81;4969274;28;20133;-66
2022/12/07 00:39:28;;;;;;;190.18;97.85;;;;;;;14.40;73.51;99085.56;4968331;28;20050;-66
2022/12/07 00:42:17;;;;;;;194.48;102.32;;;;;;;14.44;73.60;99086.75;4957421;28;20581;-65
2022/12/07 00:45:06;;;;;;;187.35;100.35;;;;;;;14.42;73.97;99086.16;4967563;28;20153;-66
2022/12/07 00:47:55;;;;;;;187.45;99.28;;;;;;;14.37;74.57;99077.91;4957608;28;20057;-67
2022/12/07 00:50:44;;;;;;;197.65;100.30;;;;;;;14.50;73.98;99088.53;4972465;28;20082;-66
2022/12/07 00:53:26;;;;;;;191.60;97.97;;;;;;;14.46;74.06;99084.66;4963591;28;20055;-66
2022/12/07 00:56:29;;;;;;;194.25;101.85;;;;;;;14.56;73.68;99090.31;4965834;28;20078;-66
2022/12/07 00:59:16;;;;;;;186.38;98.15;;;;;;;14.56;73.59;99092.19;4966986;28;20575;-68
2022/12/07 01:02:05;;;;;;;201.38;100.22;;;;;;;14.58;73.06;99092.81;4962744;28;20139;-67
2022/12/07 01:04:47;;;;;;;200.20;99.53;;;;;;;14.52;72.91;99099.94;4947789;29;20066;-67
2022/12/07 01:07:36;;;;;;;194.27;100.55;;;;;;;14.39;73.16;99097.44;4952195;28;20072;-67
2022/12/07 01:10:18;;;;;;;188.25;99.00;;;;;;;14.57;72.26;99110.91;4966868;28;20058;-67
2022/12/07 01:13:07;;;;;;;187.70;95.50;;;;;;;14.61;71.69;99109.38;4967441;28;20125;-67
2022/12/07 01:15:49;;;;;;;188.88;100.43;;;;;;;14.67;71.89;99113.03;4967160;28;20046;-67
2022/12/07 01:18:41;;;;;;;190.48;99.60;;;;;;;14.62;71.45;99113.75;4966728;28;20141;-68
2022/12/07 01:21:28;;;;;;;190.60;101.15;;;;;;;14.64;71.07;99110.81;4972666;28;20520;-67
2022/12/07 01:24:18;;;;;;;193.23;103.15;;;;;;;14.54;71.54;99115.91;4968874;28;20122;-66
2022/12/07 01:27:00;;;;;;;201.60;105.93;;;;;;;14.61;71.71;99117.47;4967892;28;20620;-68
2022/12/07 01:29:49;;;;;;;203.05;104.97;;;;;;;14.57;71.50;99124.41;4951726;28;20092;-67
2022/12/07 01:32:38;;;;;;;201.80;105.85;;;;;;;14.53;71.99;99134.00;4966800;28;20467;-67
2022/12/07 01:35:27;;;;;;;211.20;107.68;;;;;;;14.49;71.39;99130.09;4985010;28;20053;-67
2022/12/07 01:38:10;;;;;;;220.70;108.75;;;;;;;14.45;72.47;99139.72;4983492;28;20405;-66
2022/12/07 01:41:03;;;;;;;214.82;107.57;;;;;;;14.42;72.27;99142.88;4987566;28;20141;-68
2022/12/07 01:44:15;;;;;;;223.15;111.10;;;;;;;14.46;72.57;99135.94;4982095;28;20058;-66
2022/12/07 01:47:02;;;;;;;219.13;108.88;;;;;;;14.37;72.91;99143.56;4967425;28;20145;-67
2022/12/07 01:49:51;;;;;;;218.23;108.95;;;;;;;14.38;72.71;99152.47;4967196;28;20054;-68
2022/12/07 01:52:38;;;;;;;211.00;112.07;;;;;;;14.38;72.49;99155.19;4970855;28;20085;-67
2022/12/07 01:55:34;;;;;;;215.90;109.75;;;;;;;14.44;72.37;99148.84;4986876;28;20042;-68
2022/12/07 01:58:24;;;;;;;216.75;110.07;;;;;;;14.32;72.41;99146.13;4986549;28;20081;-67
2022/12/07 02:01:13;;;;;;;215.57;108.47;;;;;;;14.28;72.83;99144.94;4958723;28;20043;-67
2022/12/07 02:04:09;;;;;;;205.80;107.30;;;;;;;14.24;73.11;99151.84;4948195;29;20047;-68
2022/12/07 02:06:46;;;;;;;208.50;109.32;;;;;;;14.17;73.13;99156.47;4967449;28;20055;-68
2022/12/07 02:09:35;;;;;;;216.32;107.97;;;;;;;14.17;73.68;99156.47;4964185;28;20141;-65
2022/12/07 02:12:17;;;;;;;215.75;108.07;;;;;;;14.13;74.19;99166.91;4955226;28;20035;-69
2022/12/07 02:15:13;;;;;;;207.00;107.70;;;;;;;14.18;73.92;99166.25;4956885;28;20055;-68
2022/12/07 02:18:33;;;;;;;227.70;111.43;;;;;;;14.22;74.27;99162.03;4956853;28;20054;-69
2022/12/07 02:22:05;;;;;;;217.48;107.78;;;;;;;14.32;74.06;99170.41;4958862;28;20398;-66
2022/12/07 02:24:43;;;;;;;;;;;;;;;14.37;74.87;99169.72;4957993;28;20047;-68
2022/12/07 02:27:50;;;;;;;215.63;111.32;;;;;;;14.29;74.22;99169.00;4959247;28;19933;-68
2022/12/07 02:30:46;;;;;;;228.02;111.00;;;;;;;14.30;74.63;99164.41;4958100;28;20083;-68
2022/12/07 02:33:43;;;;;;;228.23;113.35;;;;;;;14.46;73.80;99173.75;4956499;28;20051;-66
2022/12/07 02:36:32;;;;;;;239.70;118.20;;;;;;;14.57;72.90;99170.31;4957295;28;20046;-69
2022/12/07 02:39:29;;;;;;;221.93;115.13;;;;;;;14.71;72.49;99173.66;4963651;28;20057;-67
2022/12/07 02:42:25;;;;;;;232.52;118.43;;;;;;;14.82;72.45;99169.34;4958279;28;20434;-65
2022/12/07 02:45:17;;;;;;;227.13;113.22;;;;;;;14.83;71.90;99174.53;4941210;28;20066;-65
2022/12/07 02:48:00;;;;;;;223.05;110.55;;;;;;;14.85;72.04;99183.22;4957721;28;20118;-67
2022/12/07 02:50:58;;;;;;;218.95;111.63;;;;;;;14.90;71.57;99200.63;4956966;28;20150;-66
2022/12/07 02:53:42;;;;;;;225.98;110.53;;;;;;;14.98;71.49;99201.13;4957542;28;20066;-67
2022/12/07 02:56:52;;;;;;;207.82;106.75;;;;;;;15.11;70.88;99201.97;4943470;28;20059;-64
2022/12/07 02:59:37;;;;;;;214.57;107.40;;;;;;;15.24;71.18;99207.19;4950260;28;20058;-66
2022/12/07 03:02:32;;;;;;;209.38;103.75;;;;;;;15.34;70.33;99207.41;4949047;28;20142;-66
2022/12/07 03:06:12;;;;;;;205.32;108.53;;;;;;;15.50;70.99;99221.34;4953338;28;20505;-65
2022/12/07 03:09:14;;;;;;;228.07;110.85;;;;;;;15.59;70.94;99220.75;4873789;29;20097;-67
2022/12/07 03:12:18;;;;;;;230.90;114.63;;;;;;;15.71;70.09;99226.16;4945442;28;20052;-66
2022/12/07 03:15:29;;;;;;;220.80;110.45;;;;;;;15.90;69.46;99234.19;4980585;28;20121;-68
2022/12/07 03:18:22;;;;;;;228.80;111.45;;;;;;;16.11;68.21;99239.00;4974090;28;20143;-68
2022/12/07 03:21:10;;;;;;;225.68;113.43;;;;;;;16.42;67.39;99240.47;4962190;28;20492;-66
2022/12/07 03:24:03;;;;;;;220.00;109.32;;;;;;;16.87;65.46;99248.97;4954900;28;20138;-66
2022/12/07 03:26:51;;;;;;;208.93;108.40;;;;;;;16.94;64.29;99253.19;4958136;28;20390;-67
2022/12/07 03:29:50;;;;;;;200.65;98.60;;;;;;;17.21;64.03;99258.84;4973066;28;20118;-67
2022/12/07 03:32:57;;;;;;;181.48;94.72;;;;;;;17.85;62.39;99256.94;4954428;28;20055;-67
2022/12/07 03:36:03;;;;;;;180.57;95.20;;;;;;;18.44;60.61;99270.81;4955803;28;20122;-66
2022/12/07 03:39:10;;;;;;;316.35;92.60;;;;;;;18.64;60.49;99275.66;4979909;28;20148;-66
2022/12/07 03:41:53;;;;;;;166.63;81.75;;;;;;;18.77;60.12;99275.28;4979783;28;20713;-66
2022/12/07 03:44:43;;;;;;;145.77;76.00;;;;;;;19.23;56.89;99285.88;4959869;28;20101;-66
2022/12/07 03:47:59;;;;;;;133.13;72.85;;;;;;;19.84;55.55;99284.81;4965947;28;20058;-67
2022/12/07 03:51:07;;;;;;;131.93;70.10;;;;;;;19.99;53.15;99290.38;4965926;28;20055;-66
2022/12/07 03:54:00;;;;;;;139.40;68.68;;;;;;;20.01;51.84;99299.09;4951212;28;20109;-66
2022/12/07 03:56:51;;;;;;;127.53;64.97;;;;;;;20.95;52.68;99295.78;4985331;28;20145;-64
2022/12/07 03:59:34;;;;;;;132.63;70.03;;;;;;;21.08;51.06;99292.56;4989073;28;20344;-64
2022/12/07 04:02:23;;;;;;;132.93;67.45;;;;;;;21.23;50.40;99303.50;4989186;28;20051;-65
2022/12/07 04:05:12;;;;;;;136.32;69.22;;;;;;;21.79;48.24;99299.22;4989037;28;20061;-64
2022/12/07 04:07:54;;;;;;;128.43;69.28;;;;;;;21.48;48.14;99293.75;4980757;28;20611;-63
2022/12/07 04:10:43;;;;;;;123.25;61.25;;;;;;;22.07;48.32;99301.41;4988385;28;20104;-63
2022/12/07 04:13:25;;;;;;;107.47;60.03;;;;;;;21.97;48.94;99298.66;4988357;28;20058;-64
2022/12/07 04:16:14;;;;;;;110.80;55.72;;;;;;;21.96;45.84;99304.41;4964611;28;20094;-63
2022/12/07 04:18:56;;;;;;;105.72;56.17;;;;;;;22.03;47.00;99308.50;4952860;28;20070;-63
2022/12/07 04:21:46;;;;;;;109.90;56.75;;;;;;;22.18;45.90;99304.09;4969647;28;20045;-64
2022/12/07 04:24:29;;;;;;;113.70;57.50;;;;;;;22.45;46.99;99306.53;4943604;28;20059;-63
2022/12/07 04:27:18;;;;;;;108.90;58.13;;;;;;;22.31;45.53;99306.28;4956510;28;20059;-63
2022/12/07 04:30:07;;;;;;;109.95;57.47;;;;;;;21.77;45.59;99315.88;4950231;28;20051;-65
2022/12/07 04:32:49;;;;;;;92.40;56.72;;;;;;;22.02;46.56;99320.53;4964642;28;20553;-63
2022/12/07 04:35:38;;;;;;;101.78;55.08;;;;;;;22.20;46.82;99321.03;4962127;28;20055;-64
2022/12/07 04:38:33;;;;;;;99.22;55.35;;;;;;;22.25;46.82;99315.59;4960512;28;20089;-64
2022/12/07 04:41:30;;;;;;;97.20;52.53;;;;;;;22.06;45.08;99318.88;4958207;28;20050;-63
2022/12/07 04:44:07;;;;;;;96.95;54.70;;;;;;;22.30;44.68;99312.88;4958065;28;20702;-63
2022/12/07 04:46:56;;;;;;;97.03;54.42;;;;;;;22.04;45.82;99317.53;4957117;28;20134;-63
2022/12/07 04:49:46;;;;;;;108.78;54.30;;;;;;;21.41;47.74;99310.34;4962107;28;20055;-64
2022/12/07 04:52:35;;;;;;;99.60;54.08;;;;;;;21.59;46.52;99313.69;4969252;28;20134;-65
2022/12/07 04:55:24;;;;;;;98.68;54.55;;;;;;;21.50;46.24;99307.97;4968173;28;20110;-65
2022/12/07 04:58:13;;;;;;;96.20;53.00;;;;;;;21.40;48.18;99310.63;4967833;28;20141;-65
2022/12/07 05:00:56;;;;;;;106.32;54.92;;;;;;;21.55;46.83;99304.41;4964640;28;20054;-64
2022/12/07 05:03:45;;;;;;;104.82;54.88;;;;;;;21.63;47.62;99306.59;4962488;28;20594;-64
2022/12/07 05:06:28;;;;;;;109.57;59.15;;;;;;;21.50;45.72;99310.69;4953852;28;20065;-65
2022/12/07 05:09:24;;;;;;;113.65;59.22;;;;;;;21.63;47.37;99318.34;4957348;28;20157;-65
2022/12/07 05:11:59;;;;;;;110.97;58.58;;;;;;;21.71;47.15;99319.72;4965131;28;20654;-65
2022/12/07 05:14:54;;;;;;;101.60;59.75;;;;;;;21.78;46.73;99314.81;4974910;28;20157;-65
2022/12/07 05:17:29;;;;;;;104.45;58.80;;;;;;;21.83;48.64;99312.06;4977157;28;20059;-67
2022/12/07 05:20:24;;;;;;;104.30;59.35;;;;;;;21.86;45.88;99305.25;4976406;28;20391;-66
2022/12/07 05:23:00;;;;;;;117.65;55.03;;;;;;;21.92;45.49;99304.16;4975907;28;20038;-65
2022/12/07 05:25:55;;;;;;;95.72;53.38;;;;;;;21.85;45.57;99298.13;4977021;28;20065;-65
2022/12/07 05:28:37;;;;;;;97.18;52.03;;;;;;;22.11;43.74;99301.66;4979250;28;20051;-65
2022/12/07 05:31:27;;;;;;;87.85;48.08;;;;;;;22.36;43.78;99297.28;4969463;28;20153;-65
2022/12/07 05:34:16;;;;;;;88.60;48.05;;;;;;;22.53;44.72;99292.28;4985309;28;20045;-64
2022/12/07 05:36:58;;;;;;;84.82;49.05;;;;;;;22.58;42.55;99289.53;4958542;28;20054;-65
2022/12/07 05:39:53;;;;;;;98.35;51.42;;;;;;;22.89;43.99;99292.16;4960523;28;20059;-65
2022/12/07 05:42:28;;;;;;;101.70;54.53;;;;;;;23.16;42.85;99293.66;4963875;28;20114;-65
2022/12/07 05:45:24;;;;;;;96.63;52.30;;;;;;;23.51;42.64;99284.41;4964920;28;20107;-66
2022/12/07 05:47:59;;;;;;;90.68;52.08;;;;;;;23.59;41.70;99289.25;4961585;28;20054;-64
2022/12/07 05:50:50;;;;;;;105.28;51.85;;;;;;;23.36;41.48;99281.78;4950696;28;20059;-64
2022/12/07 05:53:32;;;;;;;84.70;47.80;;;;;;;22.93;42.66;99281.44;4947419;29;20159;-63
2022/12/07 05:56:28;;;;;;;82.15;44.13;;;;;;;23.35;41.67;99274.66;4985248;28;20530;-64
2022/12/07 06:02:14;;;;;;;73.97;39.08;;;;;;;24.02;38.46;99267.56;4985942;28;20042;-63
2022/12/07 06:04:56;;;;;;;77.45;40.10;;;;;;;24.09;38.42;99260.91;4978316;28;20073;-65
2022/12/07 06:07:51;;;;;;;80.97;46.40;;;;;;;23.96;40.62;99255.00;4951862;28;20057;-64
2022/12/07 06:10:26;;;;;;;95.22;50.85;;;;;;;24.20;41.00;99251.47;4946622;29;20780;-64
2022/12/07 06:13:21;;;;;;;88.55;52.40;;;;;;;24.40;41.96;99253.16;4965446;28;20617;-64
2022/12/07 06:15:56;;;;;;;103.35;50.35;;;;;;;24.41;42.20;99241.88;4966165;28;20110;-64
2022/12/07 06:18:51;;;;;;;96.95;51.40;;;;;;;24.42;40.60;99238.03;4965681;28;20498;-64
2022/12/07 06:21:26;;;;;;;92.00;52.13;;;;;;;24.55;42.49;99241.19;4951816;28;20058;-64
2022/12/07 06:24:17;;;;;;;105.65;54.17;;;;;;;24.26;40.05;99233.84;4956450;28;20567;-68
2022/12/07 06:27:00;;;;;;;106.90;52.72;;;;;;;24.41;41.63;99233.66;4968328;28;20054;-72
2022/12/07 06:29:49;;;;;;;88.55;48.38;;;;;;;24.45;40.52;99230.34;4961053;28;20600;-72
2022/12/07 06:32:31;;;;;;;78.03;45.20;;;;;;;24.52;39.42;99219.84;4961218;28;20047;-71
2022/12/07 06:35:20;;;;;;;68.00;36.83;;;;;;;24.49;37.82;99217.66;4947011;29;20142;-72
2022/12/07 06:38:09;;;;;;;75.72;42.60;;;;;;;24.20;38.98;99208.38;4963674;28;20051;-70
2022/12/07 06:40:58;;;;;;;81.45;42.35;;;;;;;24.53;38.85;99207.75;4957302;28;20066;-70
2022/12/07 06:43:40;;;;;;;69.88;42.17;;;;;;;24.33;37.84;99201.38;4957254;28;20718;-72
2022/12/07 06:46:38;;;;;;;72.68;39.13;;;;;;;24.49;37.18;99196.50;4953338;28;20146;-71
2022/12/07 06:49:20;;;;;;;64.25;37.28;;;;;;;24.70;39.21;99190.78;4957884;28;20083;-72
2022/12/07 06:52:09;;;;;;;67.47;37.85;;;;;;;24.41;37.48;99181.53;4972271;28;20042;-72
2022/12/07 06:54:51;;;;;;;64.28;37.35;;;;;;;24.54;38.57;99179.22;4969385;28;20109;-71
2022/12/07 06:57:40;;;;;;;65.65;40.67;;;;;;;24.79;40.75;99172.56;4974993;28;20070;-71
2022/12/07 07:00:22;;;;;;;83.22;48.67;;;;;;;24.74;38.51;99170.69;4971368;28;20046;-71
2022/12/07 07:03:11;;;;;;;85.38;47.65;;;;;;;24.81;41.23;99170.31;4980099;28;20043;-71
2022/12/07 07:06:00;;;;;;;84.78;46.85;;;;;;;24.87;38.64;99163.63;4965308;28;20054;-71
2022/12/07 07:08:42;;;;;;;74.40;45.78;;;;;;;24.86;37.38;99156.53;4965248;28;20051;-72
2022/12/07 07:11:31;;;;;;;80.57;43.60;;;;;;;24.86;39.56;99150.19;4964958;28;20049;-71
2022/12/07 07:14:15;;;;;;;87.28;43.30;;;;;;;24.91;38.56;99145.44;4965868;28;20039;-70
2022/12/07 07:17:05;;;;;;;84.32;44.75;;;;;;;24.81;37.49;99140.94;4966023;28;20113;-71
2022/12/07 07:19:47;;;;;;;84.57;46.17;;;;;;;24.97;39.69;99135.22;4960045;28;20357;-72
2022/12/07 07:22:36;;;;;;;77.43;44.60;;;;;;;24.82;37.70;99136.25;4947500;28;20106;-72
2022/12/07 07:25:18;;;;;;;79.57;43.92;;;;;;;24.88;38.24;99135.09;4975748;28;20054;-71
2022/12/07 07:28:13;;;;;;;78.90;42.08;;;;;;;24.92;37.70;99136.13;4986990;28;20082;-72
2022/12/07 07:31:02;;;;;;;78.63;44.58;;;;;;;25.13;37.77;99125.63;4975367;28;20113;-72
2022/12/07 07:33:53;;;;;;;87.35;43.42;;;;;;;24.64;38.00;99124.19;4969883;28;20689;-71
2022/12/07 07:36:49;;;;;;;84.47;43.97;;;;;;;24.67;37.64;99118.09;4952685;28;20057;-72
2022/12/07 07:39:24;;;;;;;91.15;44.60;;;;;;;24.85;38.91;99115.66;4950578;28;20146;-72
2022/12/07 07:42:21;;;;;;;84.57;45.80;;;;;;;24.54;37.40;99102.38;4950099;29;20059;-70
2022/12/07 07:44:56;;;;;;;84.93;45.97;;;;;;;25.07;39.15;99110.34;4950848;29;20518;-72
2022/12/07 07:47:52;;;;;;;85.18;47.85;;;;;;;24.98;38.76;99109.41;4950095;29;20150;-71
2022/12/07 07:50:27;;;;;;;100.18;48.85;;;;;;;24.85;38.38;99093.69;4976566;28;20059;-71
2022/12/07 07:53:17;;;;;;;83.28;45.28;;;;;;;25.02;39.56;99096.69;4949608;29;20387;-71
2022/12/07 07:56:01;;;;;;;99.65;46.35;;;;;;;25.07;39.76;99087.53;4950277;28;20502;-71
2022/12/07 07:58:59;;;;;;;82.85;45.53;;;;;;;25.04;38.98;99094.47;4951149;28;20661;-72
2022/12/07 08:01:34;;;;;;;92.80;44.00;;;;;;;25.12;38.18;99077.28;4969085;28;20133;-73
2022/12/07 08:04:31;;;;;;;;;;;;;;;25.26;38.40;99073.78;4956806;28;20061;-72
2022/12/07 08:07:07;;;;;;;90.05;44.63;;;;;;;24.96;39.56;99071.25;4957140;28;19934;-71
2022/12/07 08:10:02;;;;;;;82.95;44.50;;;;;;;25.16;39.16;99058.28;4958444;28;20051;-71
2022/12/07 08:13:10;;;;;;;87.65;44.80;;;;;;;24.95;38.76;99055.88;4960352;28;20067;-71
2022/12/07 08:15:48;;;;;;;77.03;44.05;;;;;;;25.11;39.18;99045.47;4960450;28;20046;-71
2022/12/07 08:18:31;;;;;;;96.00;46.08;;;;;;;24.77;40.43;99043.03;4960210;28;20046;-71
2022/12/07 08:21:20;;;;;;;86.95;46.55;;;;;;;24.95;39.66;99041.34;4969896;28;20043;-73
2022/12/07 08:24:09;;;;;;;86.78;46.30;;;;;;;24.85;38.98;99036.84;4965382;28;20088;-71
2022/12/07 08:26:51;;;;;;;78.10;44.97;;;;;;;25.05;39.78;99026.63;4967878;28;20150;-72
2022/12/07 08:29:46;;;;;;;81.13;47.60;;;;;;;24.87;39.42;99033.81;4942952;28;20075;-67
2022/12/07 08:32:21;;;;;;;80.22;46.08;;;;;;;24.91;38.98;99021.09;4958630;28;20067;-72
2022/12/07 08:35:11;;;;;;;83.45;47.92;;;;;;;24.90;39.82;99022.22;4957390;28;20129;-73
2022/12/07 08:37:53;;;;;;;82.15;47.70;;;;;;;24.55;39.38;99016.19;4950147;28;20092;-73
2022/12/07 08:40:48;;;;;;;83.35;50.03;;;;;;;24.93;39.96;99005.94;4958320;28;20047;-73
2022/12/07 08:43:24;;;;;;;91.18;48.25;;;;;;;24.99;39.08;99002.00;4960154;28;20141;-72
2022/12/07 08:46:30;;;;;;;84.55;48.92;;;;;;;24.95;38.87;99002.91;4958929;28;20039;-72
2022/12/07 08:49:10;;;;;;;86.32;47.30;;;;;;;24.71;38.82;98997.56;4953638;28;20070;-73
2022/12/07 08:52:05;;;;;;;84.35;47.85;;;;;;;25.15;38.60;98994.28;4950885;28;20506;-72
2022/12/07 08:54:41;;;;;;;84.10;48.88;;;;;;;25.13;38.91;98982.81;4961762;28;20146;-73
2022/12/07 08:57:42;;;;;;;89.93;48.40;;;;;;;25.08;40.20;98977.41;4956473;28;20058;-72
2022/12/07 09:00:18;;;;;;;95.80;50.03;;;;;;;24.86;39.68;98972.59;4957818;28;20039;-74
2022/12/07 09:03:13;;;;;;;89.47;49.80;;;;;;;24.98;39.32;98969.38;4961072;28;20053;-73
2022/12/07 09:05:48;;;;;;;93.50;48.67;;;;;;;25.08;38.80;98971.91;4943316;28;20050;-72
2022/12/07 09:08:52;;;;;;;84.43;48.25;;;;;;;25.13;39.04;98973.75;4958505;28;20055;-73
2022/12/07 09:11:48;;;;;;;89.22;45.10;;;;;;;25.06;38.71;98967.84;4958679;28;20781;-72
2022/12/07 09:14:24;;;;;;;84.57;45.33;;;;;;;24.81;38.96;98968.00;4958428;28;20067;-73
2022/12/07 09:17:13;;;;;;;78.07;44.37;;;;;;;24.79;37.74;98972.19;4957602;28;20122;-71
2022/12/07 09:20:03;;;;;;;83.15;44.78;;;;;;;24.81;37.77;98970.75;4959870;28;20563;-72
2022/12/07 09:22:46;;;;;;;85.78;41.90;;;;;;;24.77;37.84;98968.91;4958554;28;20057;-72
2022/12/07 09:25:35;;;;;;;67.72;38.90;;;;;;;24.91;37.56;98961.50;4958689;28;20070;-73
2022/12/07 09:28:24;;;;;;;66.18;32.60;;;;;;;24.73;37.12;98968.69;4965584;28;20145;-72
2022/12/07 09:31:13;;;;;;;61.33;30.67;;;;;;;24.90;37.00;98961.84;4971604;28;20050;-71
2022/12/07 09:34:05;;;;;;;54.40;27.15;;;;;;;24.96;36.08;98963.38;4960209;28;20661;-73
2022/12/07 09:36:54;;;;;;;53.35;26.65;;;;;;;25.08;35.55;98969.16;4958285;28;20126;-70
2022/12/07 09:39:39;;;;;;;44.10;23.40;;;;;;;24.81;35.50;98961.69;4960168;28;20043;-73
2022/12/07 09:42:44;;;;;;;47.40;22.50;;;;;;;24.85;35.57;98961.91;4961792;28;20043;-72
2022/12/07 09:45:44;;;;;;;44.90;22.80;;;;;;;24.86;36.33;98958.03;4958372;28;20035;-72
2022/12/07 09:48:30;;;;;;;39.40;22.50;;;;;;;24.76;36.04;98951.66;4958191;28;20125;-72
2022/12/07 09:51:24;;;;;;;44.28;22.30;;;;;;;24.83;35.98;98945.75;4957640;28;20046;-72
2022/12/07 09:54:07;;;;;;;40.55;21.70;;;;;;;24.71;35.84;98948.97;4960842;28;20125;-72
2022/12/07 09:56:56;;;;;;;44.10;22.17;;;;;;;24.79;35.14;98939.25;4958151;28;20039;-73
2022/12/07 09:59:38;;;;;;;39.00;22.20;;;;;;;24.77;35.36;98941.47;4958279;28;20058;-72
2022/12/07 10:02:46;;;;;;;45.90;21.55;;;;;;;24.61;36.38;98932.69;4956870;28;20134;-72
2022/12/07 10:05:35;;;;;;;43.58;20.55;;;;;;;24.69;35.28;98940.25;4957124;28;20554;-72
2022/12/07 10:08:25;;;;;;;36.70;20.63;;;;;;;24.68;36.32;98932.28;4958278;28;20374;-71
2022/12/07 10:11:15;;;;;;;41.30;21.27;;;;;;;24.61;36.96;98921.69;4958400;28;21368;-71
2022/12/07 10:14:13;;;;;;;39.70;22.25;;;;;;;24.61;36.61;98930.78;4957649;28;20118;-72
2022/12/07 10:17:47;;;;;;;35.05;21.52;;;;;;;24.75;36.76;98928.03;4962572;28;20689;-72
2022/12/07 10:20:29;;;;;;;42.00;21.65;;;;;;;24.54;38.62;98927.59;4958357;28;20710;-72
2022/12/07 10:23:25;;;;;;;42.65;21.73;;;;;;;24.41;39.87;98933.81;4960657;28;20150;-72
2022/12/07 10:26:39;;;;;;;43.55;20.85;;;;;;;24.34;38.12;98922.41;4957460;28;20039;-72
2022/12/07 10:29:45;;;;;;;44.65;19.98;;;;;;;24.40;38.70;98916.56;4958835;28;20131;-72
2022/12/07 10:32:20;;;;;;;43.75;21.65;;;;;;;24.29;37.43;98920.59;4959121;28;20546;-72
2022/12/07 10:35:28;;;;;;;39.33;22.25;;;;;;;24.08;38.18;98925.59;4956159;28;20134;-72
2022/12/07 10:38:23;;;;;;;36.58;19.95;;;;;;;24.37;38.07;98916.34;4961982;28;20435;-72
2022/12/07 10:41:12;;;;;;;41.90;22.23;;;;;;;24.30;38.21;98910.41;4965651;28;20141;-72
2022/12/07 10:44:04;;;;;;;36.25;22.92;;;;;;;24.16;38.28;98908.44;4956260;28;20748;-72
2022/12/07 10:47:13;;;;;;;43.25;23.77;;;;;;;24.17;39.02;98901.84;4957659;28;20061;-72
2022/12/07 10:50:36;;;;;;;42.42;24.15;;;;;;;23.97;39.91;98891.22;4957577;28;20086;-72
2022/12/07 10:53:49;;;;;;;41.65;22.67;;;;;;;23.94;40.14;98900.03;4956483;28;20046;-72
2022/12/07 10:56:42;;;;;;;47.13;24.25;;;;;;;23.79;41.39;98898.34;4957410;28;20069;-72
2022/12/07 11:00:00;;;;;;;42.45;22.90;;;;;;;23.67;42.87;98889.72;4955436;28;20054;-72
2022/12/07 11:03:09;;;;;;;44.95;25.98;;;;;;;23.45;41.51;98902.88;4957229;28;20054;-73
2022/12/07 11:06:27;;;;;;;42.25;21.63;;;;;;;23.41;41.37;98904.56;4957347;28;20061;-73
2022/12/07 11:09:37;;;;;;;38.35;22.42;;;;;;;23.64;41.69;98904.81;4949866;28;20089;-72
2022/12/07 11:13:10;;;;;;;42.15;22.58;;;;;;;23.57;41.62;98913.41;4955895;28;20069;-73
2022/12/07 11:16:11;;;;;;;38.45;22.20;;;;;;;23.33;43.33;98909.88;4959600;28;20122;-71
2022/12/07 11:19:14;;;;;;;44.28;22.30;;;;;;;23.23;43.75;98911.66;4947149;29;20055;-73
2022/12/07 11:22:23;;;;;;;43.28;21.55;;;;;;;23.16;43.40;98910.34;4953298;28;20146;-69
2022/12/07 11:25:13;;;;;;;33.95;20.52;;;;;;;23.16;43.41;98902.97;4952375;28;20055;-73
2022/12/07 11:28:32;;;;;;;37.70;21.15;;;;;;;22.96;44.26;98903.19;4968095;28;20133;-65
2022/12/07 11:31:58;;;;;;;41.50;21.85;;;;;;;22.82;45.20;98900.31;4966027;28;20071;-72
2022/12/07 11:35:00;;;;;;;37.20;19.95;;;;;;;22.72;47.00;98909.47;4965815;28;20470;-73
2022/12/07 11:37:42;;;;;;;42.20;22.48;;;;;;;22.47;47.64;98907.78;4971716;28;20465;-73
2022/12/07 11:40:38;;;;;;;39.63;22.33;;;;;;;22.33;49.11;98907.63;4977478;28;20066;-73
2022/12/07 11:43:31;;;;;;;45.95;23.23;;;;;;;22.05;52.13;98915.47;4957613;28;20055;-72
2022/12/07 11:46:24;;;;;;;37.40;22.15;;;;;;;21.93;50.32;98904.06;4946149;28;20099;-72
2022/12/07 11:49:37;;;;;;;49.75;24.38;;;;;;;21.94;50.46;98896.72;4965421;28;20051;-73
2022/12/07 11:52:43;;;;;;;51.25;25.38;;;;;;;21.68;53.11;98894.94;4961596;28;20082;-72
2022/12/07 11:55:52;;;;;;;56.22;24.73;;;;;;;21.52;53.16;98898.88;4945595;28;20055;-73
2022/12/07 11:58:45;;;;;;;51.00;24.50;;;;;;;21.40;52.84;98895.63;4946095;29;20111;-74
2022/12/07 12:01:39;;;;;;;46.30;25.45;;;;;;;21.36;52.55;98902.75;4945928;29;20127;-73
2022/12/07 12:04:39;;;;;;;53.50;26.48;;;;;;;21.28;54.68;98899.50;4952595;28;21423;-71
2022/12/07 12:07:24;;;;;;;61.97;27.43;;;;;;;20.97;54.42;98906.19;4945189;28;20137;-74
2022/12/07 12:11:25;;;;;;;67.00;28.63;;;;;;;20.81;53.23;98902.66;4957682;28;20157;-74
2022/12/07 12:14:49;;;;;;;50.70;25.17;;;;;;;20.84;54.19;98907.56;4898273;29;20048;-71
2022/12/07 12:17:40;;;;;;;51.72;26.52;;;;;;;20.77;55.87;98907.03;4923930;28;20054;-72
2022/12/07 12:20:32;;;;;;;59.47;27.45;;;;;;;20.58;56.74;98914.94;4950784;29;20686;-72
2022/12/07 12:23:26;;;;;;;58.85;26.98;;;;;;;20.39;57.80;98906.50;4958782;28;20118;-73
2022/12/07 12:26:22;;;;;;;66.30;29.67;;;;;;;20.23;59.27;98908.44;4949679;29;20063;-69
2022/12/07 12:29:14;;;;;;;53.60;26.02;;;;;;;20.16;58.79;98908.72;4951651;28;20122;-69
2022/12/07 12:32:22;;;;;;;60.35;27.33;;;;;;;20.20;58.19;98914.44;4948954;29;20059;-68
2022/12/07 12:35:33;;;;;;;58.22;29.77;;;;;;;20.08;59.15;98918.25;4949578;29;20047;-70
2022/12/07 12:38:34;;;;;;;59.30;29.30;;;;;;;19.91;59.83;98909.50;4963208;28;20055;-70
2022/12/07 12:44:37;;;;;;;85.10;32.05;;;;;;;19.78;60.69;98912.78;4949275;28;20063;-70
2022/12/07 12:47:57;;;;;;;90.38;33.53;;;;;;;19.75;61.34;98911.38;4963027;28;20145;-68
2022/12/07 12:50:46;;;;;;;76.90;30.90;;;;;;;19.61;61.39;98919.22;4940388;28;20498;-68
2022/12/07 12:53:33;;;;;;;82.05;32.38;;;;;;;19.58;61.83;98913.50;4948885;29;20151;-67
2022/12/07 12:56:47;;;;;;;;;;;;;;;19.68;61.09;98918.94;4952696;28;20060;-69
2022/12/07 12:59:43;;;;;;;74.78;34.05;;;;;;;19.58;60.83;98922.47;4938080;28;20342;-70
2022/12/07 13:02:48;;;;;;;74.20;35.83;;;;;;;19.57;62.15;98931.75;4987571;28;20038;-70
2022/12/07 13:05:32;;;;;;;84.07;35.72;;;;;;;19.47;61.72;98934.41;4987044;28;20431;-68
2022/12/07 13:08:32;;;;;;;78.15;36.15;;;;;;;19.45;62.21;98929.25;4976590;28;20133;-69
2022/12/07 13:11:18;;;;;;;;;;;;;;;19.47;61.75;98931.69;4964004;28;20067;-69
2022/12/07 13:15:08;;;;;;;91.00;36.33;;;;;;;19.40;61.51;98939.31;4959955;28;19941;-69